Decoded Metar for KAPC (NAPA in CA, USA) (IATA:APC) | Meteo·Mobile Aviation Weather
aviador You're here:

KAPC Decoded Metar

NAPA in CA, USA
Report Time2018-09-22 10:35:00
UTC Time2018-09-22 10:43:28
Flight Rules lifr LIFR
WindCalm
Visibility402 m
Phenomena:Fog
Clouds:N/A
Expected CloudBase > 400 ft AGL from Temp-Dew spread
Ceiling1,000 ft
Temp09°C (ISA -6)
Dew Point08°C (94% RH)
AAT8.6°C
QNH1015 hPa
Density Alt-591 ft
Elevation43 ft
Report Wrong Elevation
Raw Report
KAPC 221035Z AUTO 00000KT 1/4SM FG VV010 09/08 A2998 RMK AO2
T00890083=

Extra information for KAPC:More info

Metar Taf Metar & Taf Last 4 Metars F.Rules Stats Wind Profile Meteogram Temp Stats Airport Information Weather charts Add Link Nearby VenuesMetar ALERT Operation Metar Decoded Social comments

AIRNAV info for KAPC